createdAt,value
2023-03-12T00:01:20.489Z,13.00
2023-03-12T00:03:50.297Z,29.13
2023-03-12T00:06:20.036Z,34.87
2023-03-12T00:08:50.477Z,26.87
2023-03-12T00:11:21.699Z,15.30
2023-03-12T00:13:51.439Z,14.37
2023-03-12T00:16:20.546Z,12.37
2023-03-12T00:18:52.524Z,17.97
2023-03-12T00:21:22.129Z,28.60
2023-03-12T00:23:54.479Z,31.73
2023-03-12T00:26:23.356Z,13.47
2023-03-12T00:28:52.786Z,11.03
2023-03-12T00:31:23.894Z,17.73
2023-03-12T00:33:52.420Z,9.90
2023-03-12T00:36:26.337Z,12.03
2023-03-12T00:38:57.650Z,10.27
2023-03-12T00:41:27.737Z,9.40
2023-03-12T00:43:56.505Z,10.47
2023-03-12T00:46:25.033Z,16.20
2023-03-12T00:48:53.685Z,10.20
2023-03-12T00:51:22.248Z,10.27
2023-03-12T00:53:52.758Z,10.63
2023-03-12T00:56:22.584Z,11.53
2023-03-12T00:58:51.098Z,10.03
2023-03-12T01:01:19.795Z,10.13
2023-03-12T01:03:49.015Z,9.80
2023-03-12T01:06:18.600Z,13.57
2023-03-12T01:08:47.390Z,11.33
2023-03-12T01:11:16.450Z,7.80
2023-03-12T01:13:46.484Z,4.77
2023-03-12T01:16:15.002Z,6.90
2023-03-12T01:18:43.406Z,9.67
2023-03-12T01:21:14.493Z,7.13
2023-03-12T01:23:43.071Z,8.37
2023-03-12T01:26:11.609Z,8.00
2023-03-12T01:28:39.989Z,18.97
2023-03-12T01:31:10.961Z,10.00
2023-03-12T01:33:40.173Z,12.83
2023-03-12T01:36:19.064Z,6.97
2023-03-12T01:38:47.993Z,12.13
2023-03-12T01:41:16.440Z,6.10
2023-03-12T01:43:45.102Z,6.47
2023-03-12T01:46:33.356Z,9.67
2023-03-12T01:49:09.854Z,10.23
2023-03-12T01:51:43.279Z,6.80
2023-03-12T01:54:18.146Z,11.30
2023-03-12T01:56:48.144Z,7.70
2023-03-12T01:59:24.253Z,8.53
2023-03-12T02:01:54.664Z,10.37
2023-03-12T02:04:26.715Z,10.37
2023-03-12T02:07:03.686Z,4.40
2023-03-12T02:09:33.740Z,6.80
2023-03-12T02:12:03.346Z,5.87
2023-03-12T02:14:32.573Z,7.83
2023-03-12T02:17:02.955Z,5.20
2023-03-12T02:19:42.305Z,6.93
2023-03-12T02:22:12.433Z,5.90
2023-03-12T02:24:47.496Z,7.40
2023-03-12T02:27:19.716Z,6.13
2023-03-12T02:29:48.426Z,8.93
2023-03-12T02:32:24.449Z,7.40
2023-03-12T02:34:53.256Z,6.50
2023-03-12T02:37:21.931Z,7.93
2023-03-12T02:39:57.377Z,5.67
2023-03-12T02:42:27.731Z,10.20
2023-03-12T02:44:56.281Z,10.53
2023-03-12T02:47:25.198Z,8.57
2023-03-12T02:49:54.288Z,10.20
2023-03-12T02:52:22.879Z,10.07
2023-03-12T02:54:51.454Z,11.53
2023-03-12T02:57:20.250Z,10.53
2023-03-12T02:59:50.030Z,9.23
2023-03-12T03:02:18.411Z,6.00
2023-03-12T03:04:47.145Z,6.97
2023-03-12T03:07:16.024Z,9.37
2023-03-12T03:09:44.420Z,8.83
2023-03-12T03:12:12.937Z,6.90
2023-03-12T03:14:42.613Z,10.83
2023-03-12T03:17:12.966Z,8.03
2023-03-12T03:19:41.423Z,13.43
2023-03-12T03:22:09.875Z,16.33
2023-03-12T03:24:38.305Z,10.97
2023-03-12T03:27:06.827Z,7.57
2023-03-12T03:29:35.383Z,9.20
2023-03-12T03:32:04.560Z,7.60
2023-03-12T03:34:34.808Z,12.07
2023-03-12T03:37:03.203Z,7.37
2023-03-12T03:39:32.959Z,10.30
2023-03-12T03:42:01.563Z,9.90
2023-03-12T03:44:32.740Z,8.00
2023-03-12T03:47:02.472Z,16.20
2023-03-12T03:49:30.860Z,9.00
2023-03-12T03:52:00.554Z,8.73
2023-03-12T03:54:34.943Z,12.57
2023-03-12T03:57:04.626Z,10.27
2023-03-12T03:59:33.004Z,11.27
2023-03-12T04:02:02.303Z,11.57
2023-03-12T04:04:32.280Z,15.10
2023-03-12T04:07:01.997Z,17.07
2023-03-12T04:09:30.593Z,11.30
2023-03-12T04:11:59.201Z,10.83
2023-03-12T04:14:27.888Z,12.23
2023-03-12T04:16:56.455Z,8.63
2023-03-12T04:19:25.021Z,11.53
2023-03-12T04:21:53.502Z,13.60
2023-03-12T04:24:23.265Z,14.63
2023-03-12T04:26:52.346Z,11.83
2023-03-12T04:29:21.250Z,10.80
2023-03-12T04:31:49.610Z,16.10
2023-03-12T04:34:17.965Z,15.03
2023-03-12T04:36:49.569Z,10.50
2023-03-12T04:39:20.334Z,17.77
2023-03-12T04:41:52.483Z,17.27
2023-03-12T04:44:21.057Z,14.77
2023-03-12T04:46:49.601Z,17.10
2023-03-12T04:49:23.077Z,13.33
2023-03-12T04:51:51.387Z,12.47
2023-03-12T04:54:22.495Z,16.73
2023-03-12T04:56:53.004Z,16.90
2023-03-12T04:59:23.955Z,19.80
2023-03-12T05:01:52.803Z,17.03
2023-03-12T05:04:26.367Z,19.83
2023-03-12T05:06:55.800Z,20.37
2023-03-12T05:09:24.285Z,16.60
2023-03-12T05:11:54.992Z,19.93
2023-03-12T05:14:24.309Z,16.40
2023-03-12T05:16:52.880Z,17.93
2023-03-12T05:19:21.309Z,19.13
2023-03-12T05:21:50.208Z,16.10
2023-03-12T05:24:19.315Z,15.10
2023-03-12T05:26:47.927Z,17.83
2023-03-12T05:29:20.975Z,19.40
2023-03-12T05:31:50.276Z,19.40
2023-03-12T05:34:18.825Z,17.27
2023-03-12T05:36:48.237Z,16.13
2023-03-12T05:39:21.498Z,18.90
2023-03-12T05:41:50.036Z,17.47
2023-03-12T05:44:22.303Z,16.20
2023-03-12T05:46:54.820Z,15.97
2023-03-12T05:49:26.529Z,13.03
2023-03-12T05:51:56.490Z,15.77
2023-03-12T05:54:25.623Z,18.57
2023-03-12T05:56:56.062Z,14.23
2023-03-12T05:59:28.072Z,12.30
2023-03-12T06:01:58.150Z,15.53
2023-03-12T06:04:26.917Z,14.30
2023-03-12T06:06:55.410Z,21.10
2023-03-12T06:09:24.314Z,16.07
2023-03-12T06:11:53.758Z,14.37
2023-03-12T06:14:22.283Z,26.00
2023-03-12T06:16:53.294Z,13.40
2023-03-12T06:19:21.776Z,16.07
2023-03-12T06:21:51.638Z,31.27
2023-03-12T06:24:20.577Z,14.93
2023-03-12T06:26:51.956Z,24.57
2023-03-12T06:29:20.337Z,20.90
2023-03-12T06:31:52.527Z,19.03
2023-03-12T06:34:22.705Z,24.30
2023-03-12T06:36:51.051Z,18.80
2023-03-12T06:39:19.661Z,19.93
2023-03-12T06:41:48.296Z,22.30
2023-03-12T06:44:16.742Z,22.10
2023-03-12T06:46:45.315Z,21.40
2023-03-12T06:49:13.920Z,24.67
2023-03-12T06:51:43.767Z,26.87
2023-03-12T06:54:12.148Z,21.93
2023-03-12T06:56:42.304Z,28.40
2023-03-12T06:59:10.652Z,24.40
2023-03-12T07:01:39.067Z,23.93
2023-03-12T07:04:07.629Z,31.43
2023-03-12T07:06:36.151Z,28.43
2023-03-12T07:09:06.110Z,24.90
2023-03-12T07:11:35.371Z,22.40
2023-03-12T07:14:04.004Z,28.43
2023-03-12T07:16:32.394Z,26.53
2023-03-12T07:19:00.791Z,27.93
2023-03-12T07:21:29.159Z,22.93
2023-03-12T07:23:58.210Z,28.53
2023-03-12T07:26:28.411Z,28.73
2023-03-12T07:28:57.088Z,26.43
2023-03-12T07:31:25.532Z,29.80
2023-03-12T07:33:54.056Z,25.83
2023-03-12T07:36:22.679Z,24.17
2023-03-12T07:38:52.457Z,28.67
2023-03-12T07:41:21.009Z,25.53
2023-03-12T07:43:52.058Z,26.63
2023-03-12T07:46:20.842Z,30.37
2023-03-12T07:48:49.308Z,30.33
2023-03-12T07:51:17.693Z,32.67
2023-03-12T07:53:46.060Z,33.03
2023-03-12T07:56:14.874Z,37.37
2023-03-12T07:58:43.629Z,34.60
2023-03-12T08:01:13.660Z,32.10
2023-03-12T08:03:43.366Z,36.10
2023-03-12T08:06:12.245Z,35.20
2023-03-12T08:08:42.435Z,39.17
2023-03-12T08:11:11.125Z,38.93
2023-03-12T08:13:39.508Z,45.30
2023-03-12T08:16:09.514Z,43.40
2023-03-12T08:18:39.488Z,46.53
2023-03-12T08:21:08.156Z,55.63
2023-03-12T08:23:36.811Z,49.43
2023-03-12T08:26:05.600Z,48.27
2023-03-12T08:28:34.076Z,52.77
2023-03-12T08:31:02.757Z,53.07
2023-03-12T08:33:31.248Z,53.30
2023-03-12T08:36:01.027Z,52.43
2023-03-12T08:38:29.451Z,54.73
2023-03-12T08:40:58.951Z,57.70
2023-03-12T08:43:29.383Z,56.20
2023-03-12T08:45:59.134Z,54.37
2023-03-12T08:48:28.974Z,56.20
2023-03-12T08:50:58.869Z,64.90
2023-03-12T08:53:28.900Z,68.97
2023-03-12T08:55:58.353Z,58.63
2023-03-12T08:58:27.615Z,67.23
2023-03-12T09:00:57.661Z,70.13
2023-03-12T09:03:27.534Z,69.90
2023-03-12T09:06:06.745Z,77.07
2023-03-12T09:08:36.500Z,61.40
2023-03-12T09:11:05.393Z,70.53
2023-03-12T09:13:54.935Z,71.63
2023-03-12T09:16:22.304Z,67.13
2023-03-12T09:18:50.860Z,70.27
2023-03-12T09:21:19.472Z,65.30
2023-03-12T09:23:49.562Z,59.30
2023-03-12T09:26:17.959Z,54.57
2023-03-12T09:28:46.808Z,51.40
2023-03-12T09:31:15.294Z,47.47
2023-03-12T09:33:43.825Z,49.37
2023-03-12T09:36:12.279Z,52.23
2023-03-12T09:38:40.822Z,44.90
2023-03-12T09:41:20.726Z,52.20
2023-03-12T09:43:55.705Z,49.23
2023-03-12T09:46:30.213Z,38.20
2023-03-12T09:49:03.601Z,47.90
2023-03-12T09:51:39.435Z,46.97
2023-03-12T09:54:26.011Z,50.90
2023-03-12T09:56:59.144Z,39.97
2023-03-12T09:59:27.794Z,47.43
2023-03-12T10:02:01.413Z,42.37
2023-03-12T10:04:58.925Z,44.33
2023-03-12T10:07:35.837Z,43.37
2023-03-12T10:10:17.613Z,38.57
2023-03-12T10:13:07.792Z,36.43
2023-03-12T10:15:49.952Z,38.90
2023-03-12T10:18:31.866Z,41.43
2023-03-12T10:21:17.316Z,40.60
2023-03-12T10:24:16.406Z,43.03
2023-03-12T10:26:48.830Z,45.90
2023-03-12T10:29:24.205Z,53.20
2023-03-12T10:31:58.827Z,43.10
2023-03-12T10:34:35.264Z,37.00
2023-03-12T10:37:14.017Z,32.13
2023-03-12T10:39:42.509Z,42.80
2023-03-12T10:42:18.059Z,47.47
2023-03-12T10:44:52.747Z,46.50
2023-03-12T10:47:34.951Z,51.83
2023-03-12T10:50:21.083Z,47.37
2023-03-12T10:52:52.246Z,50.57
2023-03-12T10:55:27.539Z,43.33
2023-03-12T10:57:56.700Z,42.57
2023-03-12T11:00:29.225Z,44.07
2023-03-12T11:03:00.791Z,45.37
2023-03-12T11:05:32.619Z,47.40
2023-03-12T11:08:02.591Z,41.00
2023-03-12T11:10:44.733Z,41.93
2023-03-12T11:13:29.142Z,35.20
2023-03-12T11:16:01.371Z,43.27
2023-03-12T11:18:37.757Z,44.20
2023-03-12T11:21:20.696Z,36.87
2023-03-12T11:24:11.845Z,38.30
2023-03-12T11:26:51.088Z,35.37
2023-03-12T11:29:27.619Z,44.27
2023-03-12T11:32:11.906Z,43.77
2023-03-12T11:34:42.549Z,42.60
2023-03-12T11:37:18.241Z,42.00
2023-03-12T11:40:10.113Z,44.37
2023-03-12T11:42:56.740Z,39.67
2023-03-12T11:45:33.779Z,40.00
2023-03-12T11:48:17.243Z,32.37
2023-03-12T11:51:01.527Z,41.63
2023-03-12T11:54:04.916Z,36.87
2023-03-12T11:56:38.739Z,34.57
2023-03-12T11:59:26.169Z,39.63
2023-03-12T12:02:11.611Z,45.87
2023-03-12T12:05:22.118Z,32.70
2023-03-12T12:08:07.956Z,38.07
2023-03-12T12:10:51.453Z,31.33
2023-03-12T12:13:29.577Z,38.27
2023-03-12T12:16:08.344Z,29.87
2023-03-12T12:18:54.599Z,34.60
2023-03-12T12:21:44.715Z,41.27
2023-03-12T12:24:28.218Z,37.40
2023-03-12T12:27:03.641Z,40.40
2023-03-12T12:30:00.466Z,36.00
2023-03-12T12:32:43.479Z,32.00
2023-03-12T12:35:28.474Z,29.70
2023-03-12T12:38:04.306Z,33.13
2023-03-12T12:40:37.869Z,25.47
2023-03-12T12:43:23.727Z,38.37
2023-03-12T12:45:55.438Z,26.73
2023-03-12T12:48:32.223Z,35.13
2023-03-12T12:51:02.917Z,33.00
2023-03-12T12:53:43.058Z,27.53
2023-03-12T12:56:21.539Z,25.40
2023-03-12T12:59:21.514Z,29.13
2023-03-12T13:01:52.133Z,30.00
2023-03-12T13:04:27.703Z,34.37
2023-03-12T13:07:01.300Z,22.53
2023-03-12T13:09:46.125Z,28.40
2023-03-12T13:12:26.343Z,30.13
2023-03-12T13:14:57.333Z,25.30
2023-03-12T13:17:34.293Z,29.50
2023-03-12T13:20:17.405Z,36.13
2023-03-12T13:23:10.512Z,34.77
2023-03-12T13:25:56.718Z,33.73
2023-03-12T13:28:42.052Z,25.37
2023-03-12T13:31:38.033Z,29.87
2023-03-12T13:34:45.697Z,36.47
2023-03-12T13:37:48.496Z,26.63
2023-03-12T13:41:00.806Z,26.77
2023-03-12T13:43:56.343Z,28.57
2023-03-12T13:46:45.345Z,31.90
2023-03-12T13:49:19.832Z,34.90
2023-03-12T13:52:01.468Z,30.00
2023-03-12T13:54:35.884Z,29.23
2023-03-12T13:57:13.179Z,31.00
2023-03-12T13:59:47.237Z,25.53
2023-03-12T14:02:30.634Z,27.30
2023-03-12T14:05:06.415Z,23.03
2023-03-12T14:08:05.069Z,30.83
2023-03-12T14:10:46.319Z,34.73
2023-03-12T14:13:32.564Z,24.13
2023-03-12T14:16:08.790Z,25.63
2023-03-12T14:18:39.329Z,24.00
2023-03-12T14:21:11.212Z,27.20
2023-03-12T14:23:45.242Z,25.33
2023-03-12T14:26:21.737Z,26.90
2023-03-12T14:29:00.193Z,28.53
2023-03-12T14:31:31.375Z,23.03
2023-03-12T14:34:05.111Z,25.03
2023-03-12T14:36:41.539Z,27.37
2023-03-12T14:39:28.094Z,30.90
2023-03-12T14:42:00.901Z,24.33
2023-03-12T14:44:32.230Z,29.00
2023-03-12T14:47:03.020Z,33.63
2023-03-12T14:49:32.753Z,36.30
2023-03-12T14:52:01.091Z,31.40
2023-03-12T14:54:30.163Z,34.60
2023-03-12T14:56:58.565Z,37.27
2023-03-12T14:59:32.231Z,28.77
2023-03-12T15:02:06.117Z,33.03
2023-03-12T15:04:35.784Z,34.07
2023-03-12T15:07:07.255Z,38.27
2023-03-12T15:09:37.852Z,31.30
2023-03-12T15:12:09.856Z,40.40
2023-03-12T15:14:42.622Z,36.23
2023-03-12T15:17:17.666Z,34.13
2023-03-12T15:19:47.196Z,34.57
2023-03-12T15:22:18.934Z,40.87
2023-03-12T15:24:47.912Z,36.90
2023-03-12T15:27:37.278Z,36.40
2023-03-12T15:30:27.365Z,29.90
2023-03-12T15:33:07.958Z,30.57
2023-03-12T15:35:38.076Z,29.30
2023-03-12T15:38:07.026Z,30.40
2023-03-12T15:40:36.387Z,20.13
2023-03-12T15:43:07.654Z,33.67
2023-03-12T15:45:40.368Z,42.10
2023-03-12T15:48:23.184Z,23.20
2023-03-12T15:50:52.005Z,23.10
2023-03-12T15:53:31.159Z,25.30
2023-03-12T15:56:05.543Z,23.10
2023-03-12T15:58:36.622Z,21.90
2023-03-12T16:01:12.982Z,29.87
2023-03-12T16:03:42.738Z,26.20
2023-03-12T16:06:14.226Z,29.67
2023-03-12T16:08:47.670Z,24.47
2023-03-12T16:11:19.667Z,32.00
2023-03-12T16:13:51.041Z,18.53
2023-03-12T16:16:20.844Z,27.77
2023-03-12T16:18:49.357Z,39.27
2023-03-12T16:21:17.731Z,33.10
2023-03-12T16:23:46.164Z,29.57
2023-03-12T16:26:15.482Z,22.93
2023-03-12T16:28:44.868Z,26.80
2023-03-12T16:31:14.511Z,26.17
2023-03-12T16:33:44.883Z,28.07
2023-03-12T16:36:16.908Z,31.00
2023-03-12T16:38:46.238Z,24.60
2023-03-12T16:41:17.794Z,30.90
2023-03-12T16:43:51.196Z,21.87
2023-03-12T16:46:22.491Z,33.13
2023-03-12T16:48:54.543Z,32.40
2023-03-12T16:51:23.662Z,33.03
2023-03-12T16:54:05.497Z,27.53
2023-03-12T16:56:38.331Z,33.90
2023-03-12T16:59:13.634Z,30.93
2023-03-12T17:01:42.045Z,27.37
2023-03-12T17:04:12.949Z,42.53
2023-03-12T17:06:41.566Z,50.63
2023-03-12T17:09:10.147Z,49.07
2023-03-12T17:11:39.303Z,46.03
2023-03-12T17:14:19.000Z,54.17
2023-03-12T17:16:47.401Z,47.20
2023-03-12T17:19:17.944Z,51.20
2023-03-12T17:21:47.094Z,63.23
2023-03-12T17:24:15.749Z,50.27
2023-03-12T17:26:45.381Z,57.83
2023-03-12T17:29:13.854Z,49.23
2023-03-12T17:31:42.205Z,43.07
2023-03-12T17:34:10.684Z,48.70
2023-03-12T17:36:41.264Z,48.43
2023-03-12T17:39:09.859Z,48.77
2023-03-12T17:41:38.401Z,39.53
2023-03-12T17:44:07.316Z,41.13
2023-03-12T17:46:39.197Z,44.47
2023-03-12T17:49:09.073Z,38.37
2023-03-12T17:51:38.611Z,37.30
2023-03-12T17:54:11.655Z,43.47
2023-03-12T17:56:40.291Z,41.07
2023-03-12T17:59:08.962Z,39.83
2023-03-12T18:01:37.365Z,37.03
2023-03-12T18:04:05.923Z,38.53
2023-03-12T18:06:34.297Z,35.13
2023-03-12T18:09:02.733Z,44.37
2023-03-12T18:11:32.611Z,32.63
2023-03-12T18:14:01.030Z,29.10
2023-03-12T18:16:29.643Z,32.53
2023-03-12T18:18:58.281Z,34.43
2023-03-12T18:21:26.827Z,38.67
2023-03-12T18:23:57.503Z,41.37
2023-03-12T18:26:27.909Z,29.13
2023-03-12T18:28:58.301Z,33.17
2023-03-12T18:31:27.165Z,41.47
2023-03-12T18:33:55.741Z,31.13
2023-03-12T18:36:24.152Z,38.37
2023-03-12T18:38:52.569Z,28.40
2023-03-12T18:41:21.014Z,32.00
2023-03-12T18:43:49.439Z,36.07
2023-03-12T18:46:19.260Z,27.90
2023-03-12T18:48:47.728Z,32.63
2023-03-12T18:51:16.230Z,30.73
2023-03-12T18:53:46.217Z,25.80
2023-03-12T18:56:15.339Z,36.70
2023-03-12T18:58:43.759Z,28.00
2023-03-12T19:01:14.053Z,32.70
2023-03-12T19:03:44.139Z,24.57
2023-03-12T19:06:15.363Z,33.67
2023-03-12T19:08:44.712Z,27.97
2023-03-12T19:11:15.630Z,37.00
2023-03-12T19:13:44.824Z,27.27
2023-03-12T19:16:17.797Z,32.37
2023-03-12T19:18:47.803Z,36.40
2023-03-12T19:21:16.810Z,33.07
2023-03-12T19:23:45.610Z,30.60
2023-03-12T19:26:15.419Z,26.93
2023-03-12T19:28:44.164Z,36.07
2023-03-12T19:31:15.445Z,26.57
2023-03-12T19:33:44.836Z,32.43
2023-03-12T19:36:14.624Z,26.50
2023-03-12T19:38:43.220Z,29.90
2023-03-12T19:41:12.900Z,36.47
2023-03-12T19:43:41.442Z,28.10
2023-03-12T19:46:09.985Z,35.33
2023-03-12T19:48:38.575Z,22.63
2023-03-12T19:51:08.165Z,28.73
2023-03-12T19:53:39.240Z,29.43
2023-03-12T19:56:08.430Z,29.50
2023-03-12T19:58:36.976Z,27.27
2023-03-12T20:01:06.156Z,33.13
2023-03-12T20:03:35.128Z,33.03
2023-03-12T20:06:04.199Z,37.27
2023-03-12T20:08:32.615Z,36.20
2023-03-12T20:11:07.446Z,33.83
2023-03-12T20:13:38.074Z,81.97
2023-03-12T20:16:08.151Z,47.10
2023-03-12T20:18:36.631Z,108.43
2023-03-12T20:21:06.328Z,69.70
2023-03-12T20:23:34.942Z,27.80
2023-03-12T20:26:05.149Z,30.23
2023-03-12T20:28:33.665Z,50.47
2023-03-12T20:31:09.732Z,43.43
2023-03-12T20:33:38.180Z,37.63
2023-03-12T20:36:08.498Z,28.23
2023-03-12T20:38:37.081Z,37.83
2023-03-12T20:41:14.026Z,38.97
2023-03-12T20:43:42.916Z,35.47
2023-03-12T20:46:13.761Z,40.80
2023-03-12T20:48:42.508Z,36.90
2023-03-12T20:51:10.935Z,29.67
2023-03-12T20:53:39.457Z,32.40
2023-03-12T20:56:10.124Z,40.13
2023-03-12T20:58:38.848Z,37.97
2023-03-12T21:01:07.475Z,36.10
2023-03-12T21:03:36.221Z,38.00
2023-03-12T21:06:05.435Z,33.00
2023-03-12T21:08:34.403Z,37.93
2023-03-12T21:11:06.038Z,40.30
2023-03-12T21:13:35.939Z,31.37
2023-03-12T21:16:07.835Z,36.03
2023-03-12T21:18:36.541Z,34.47
2023-03-12T21:21:06.833Z,54.33
2023-03-12T21:23:36.395Z,38.67
2023-03-12T21:26:09.760Z,38.93
2023-03-12T21:28:39.584Z,25.47
2023-03-12T21:31:10.549Z,43.73
2023-03-12T21:33:39.284Z,30.80
2023-03-12T21:36:10.858Z,32.17
2023-03-12T21:38:40.203Z,39.77
2023-03-12T21:41:09.878Z,43.50
2023-03-12T21:43:40.855Z,33.40
2023-03-12T21:46:11.451Z,26.37
2023-03-12T21:48:41.113Z,33.23
2023-03-12T21:51:12.253Z,28.30
2023-03-12T21:53:40.881Z,20.17
2023-03-12T21:56:09.998Z,36.30
2023-03-12T21:58:40.021Z,35.67
2023-03-12T22:01:11.019Z,23.83
2023-03-12T22:03:40.677Z,26.00
2023-03-12T22:06:10.131Z,33.37
2023-03-12T22:08:39.281Z,27.60
2023-03-12T22:11:09.164Z,32.03
2023-03-12T22:13:39.628Z,32.17
2023-03-12T22:16:09.636Z,29.40
2023-03-12T22:18:40.948Z,25.77
2023-03-12T22:21:17.363Z,29.37
2023-03-12T22:23:47.929Z,27.60
2023-03-12T22:26:16.679Z,31.87
2023-03-12T22:28:50.687Z,23.20
2023-03-12T22:31:20.765Z,26.57
2023-03-12T22:33:49.492Z,29.40
2023-03-12T22:36:19.560Z,25.10
2023-03-12T22:38:48.847Z,18.20
2023-03-12T22:41:20.218Z,31.00
2023-03-12T22:43:54.443Z,24.37
2023-03-12T22:46:24.883Z,24.00
2023-03-12T22:48:56.211Z,26.23
2023-03-12T22:51:24.995Z,18.50
2023-03-12T22:53:53.881Z,23.83
2023-03-12T22:56:22.452Z,27.50
2023-03-12T22:58:53.290Z,24.70
2023-03-12T23:01:23.794Z,42.23
2023-03-12T23:03:52.875Z,26.83
2023-03-12T23:06:23.978Z,27.03
2023-03-12T23:08:54.756Z,23.93
2023-03-12T23:11:25.393Z,25.20
2023-03-12T23:13:55.803Z,22.37
2023-03-12T23:16:27.286Z,29.97
2023-03-12T23:18:56.597Z,26.70
2023-03-12T23:21:26.690Z,22.70
2023-03-12T23:23:55.440Z,18.87
2023-03-12T23:26:26.900Z,23.67
2023-03-12T23:28:58.545Z,24.87
2023-03-12T23:31:28.167Z,24.93
2023-03-12T23:33:58.555Z,25.30
2023-03-12T23:36:27.645Z,29.20
2023-03-12T23:38:56.233Z,24.13
2023-03-12T23:41:26.526Z,24.77
2023-03-12T23:43:57.889Z,27.00
2023-03-12T23:46:27.600Z,26.10
2023-03-12T23:48:56.513Z,20.20
2023-03-12T23:51:27.467Z,26.73
2023-03-12T23:53:59.718Z,22.67
2023-03-12T23:56:33.789Z,23.20
2023-03-12T23:59:05.092Z,28.73
